createdAt,value
2022-12-24T00:03:09.654Z,25.2
2022-12-24T00:08:52.144Z,25
2022-12-24T00:14:30.519Z,24.7
2022-12-24T00:19:54.376Z,25
2022-12-24T00:25:33.372Z,25.2
2022-12-24T00:30:41.000Z,24.8
2022-12-24T00:36:26.510Z,24.8
2022-12-24T00:42:04.145Z,25.2
2022-12-24T00:47:46.347Z,24.9
2022-12-24T00:53:24.165Z,24.7
2022-12-24T00:59:01.669Z,25.1
2022-12-24T01:04:26.517Z,25.2
2022-12-24T01:10:04.619Z,24.9
2022-12-24T01:15:42.442Z,25.2
2022-12-24T01:21:20.778Z,24.9
2022-12-24T01:26:58.867Z,24.7
2022-12-24T01:32:37.183Z,25.1
2022-12-24T01:37:29.181Z,24.9
2022-12-24T01:42:51.556Z,24.6
2022-12-24T01:48:19.961Z,24.8
2022-12-24T01:53:42.034Z,25.1
2022-12-24T01:59:20.681Z,24.8
2022-12-24T02:04:59.672Z,24.6
2022-12-24T02:10:37.486Z,25
2022-12-24T02:15:45.110Z,24.8
2022-12-24T02:21:07.914Z,24.5
2022-12-24T02:26:46.343Z,24.8
2022-12-24T02:32:24.085Z,25
2022-12-24T02:37:30.701Z,24.6
2022-12-24T02:43:30.839Z,24.3
2022-12-24T02:49:15.895Z,24.1
2022-12-24T02:54:53.015Z,24.3
2022-12-24T03:00:16.075Z,24.8
2022-12-24T03:05:39.986Z,24.8
2022-12-24T03:11:01.890Z,24.4
2022-12-24T03:16:25.061Z,24.6
2022-12-24T03:22:04.042Z,24.9
2022-12-24T03:27:41.525Z,24.9
2022-12-24T03:33:04.246Z,24.6
2022-12-24T03:38:42.327Z,24.9
2022-12-24T03:44:19.953Z,24.7
2022-12-24T03:49:58.024Z,24.4
2022-12-24T03:55:35.538Z,24.8
2022-12-24T04:01:12.872Z,24.8
2022-12-24T04:06:21.138Z,24.4
2022-12-24T04:12:00.764Z,24.5
2022-12-24T04:17:39.066Z,24.8
2022-12-24T04:23:17.284Z,24.5
2022-12-24T04:28:55.263Z,24.4
2022-12-24T04:34:18.120Z,24.8
2022-12-24T04:39:40.464Z,24.6
2022-12-24T04:44:51.348Z,24.3
2022-12-24T04:50:30.135Z,24.6
2022-12-24T04:55:37.355Z,24.8
2022-12-24T05:01:15.259Z,24.5
2022-12-24T05:07:24.645Z,24.5
2022-12-24T05:13:02.303Z,24.9
2022-12-24T05:18:48.682Z,24.6
2022-12-24T05:24:26.139Z,24.2
2022-12-24T05:30:04.879Z,23.9
2022-12-24T05:35:12.677Z,23.8
2022-12-24T05:40:55.798Z,23.4
2022-12-24T05:46:33.968Z,23.8
2022-12-24T05:51:58.956Z,24.1
2022-12-24T05:57:21.713Z,24.4
2022-12-24T06:03:00.544Z,24.3
2022-12-24T06:08:28.407Z,24.2
2022-12-24T06:14:06.943Z,24.6
2022-12-24T06:19:50.707Z,24.3
2022-12-24T06:25:13.478Z,23.8
2022-12-24T06:30:57.206Z,23.5
2022-12-24T06:36:38.472Z,23.3
2022-12-24T06:42:16.675Z,23.2
2022-12-24T06:47:55.515Z,23.5
2022-12-24T06:53:33.828Z,24
2022-12-24T06:58:58.828Z,24.4
2022-12-24T07:04:40.886Z,24.1
2022-12-24T07:10:19.946Z,23.6
2022-12-24T07:15:59.069Z,23.3
2022-12-24T07:21:45.403Z,23.1
2022-12-24T07:27:23.792Z,23
2022-12-24T07:33:17.113Z,23.3
2022-12-24T07:38:58.204Z,23.9
2022-12-24T07:44:44.052Z,24.3
2022-12-24T07:50:22.733Z,23.9
2022-12-24T07:56:01.216Z,23.4
2022-12-24T08:01:40.035Z,23.1
2022-12-24T08:07:23.913Z,23
2022-12-24T08:13:02.864Z,22.9
2022-12-24T08:18:40.749Z,23.3
2022-12-24T08:24:19.256Z,23.9
2022-12-24T08:29:57.044Z,24.3
2022-12-24T08:35:42.635Z,23.8
2022-12-24T08:41:20.755Z,23.4
2022-12-24T08:47:04.322Z,23.1
2022-12-24T08:52:42.522Z,22.9
2022-12-24T08:58:25.982Z,22.9
2022-12-24T09:04:11.339Z,23.3
2022-12-24T09:09:54.552Z,23.6
2022-12-24T09:15:37.731Z,23.5
2022-12-24T09:21:20.906Z,23.6
2022-12-24T09:26:43.827Z,24.1
2022-12-24T09:32:07.077Z,23.8
2022-12-24T09:37:50.392Z,23.4
2022-12-24T09:43:18.022Z,23
2022-12-24T09:48:59.581Z,22.8
2022-12-24T09:54:38.522Z,22.7
2022-12-24T09:59:45.866Z,22.9
2022-12-24T10:05:25.779Z,23.5
2022-12-24T10:11:04.374Z,23.9
2022-12-24T10:16:32.365Z,23.6
2022-12-24T10:22:10.462Z,23.1
2022-12-24T10:27:52.732Z,22.9
2022-12-24T10:33:36.793Z,22.7
2022-12-24T10:39:15.160Z,22.7
2022-12-24T10:44:46.701Z,23.1
2022-12-24T10:50:30.512Z,23.7
2022-12-24T10:56:08.779Z,23.8
2022-12-24T11:01:49.203Z,23.3
2022-12-24T11:07:16.246Z,22.9
2022-12-24T11:13:27.578Z,22.8
2022-12-24T11:19:20.756Z,22.5
2022-12-24T11:25:06.374Z,22.8
2022-12-24T11:30:50.117Z,23.4
2022-12-24T11:36:28.776Z,23.8
2022-12-24T11:42:06.124Z,23.5
2022-12-24T11:47:46.995Z,23.2
2022-12-24T11:53:41.551Z,23.1
2022-12-24T11:59:26.856Z,23.8
2022-12-24T12:04:58.469Z,23.8
2022-12-24T12:10:20.830Z,23.4
2022-12-24T12:16:18.181Z,23.1
2022-12-24T12:22:01.524Z,23.3
2022-12-24T12:27:39.958Z,23.9
2022-12-24T12:33:25.726Z,23.7
2022-12-24T12:39:10.824Z,23.3
2022-12-24T12:44:54.628Z,23.1
2022-12-24T12:50:25.626Z,23.5
2022-12-24T12:56:08.296Z,24
2022-12-24T13:01:49.796Z,23.6
2022-12-24T13:07:13.071Z,23.3
2022-12-24T13:12:59.209Z,23.2
2022-12-24T13:18:42.625Z,23.8
2022-12-24T13:24:26.311Z,24
2022-12-24T13:30:11.878Z,23.6
2022-12-24T13:35:54.792Z,23.3
2022-12-24T13:41:54.715Z,23.4
2022-12-24T13:47:17.980Z,24.1
2022-12-24T13:52:59.169Z,23.9
2022-12-24T13:58:37.603Z,23.5
2022-12-24T14:04:24.612Z,23.3
2022-12-24T14:09:53.464Z,23.6
2022-12-24T14:15:37.209Z,23.6
2022-12-24T14:21:17.608Z,23.6
2022-12-24T14:26:55.865Z,23.8
2022-12-24T14:32:34.510Z,23.8
2022-12-24T14:37:57.435Z,23.8
2022-12-24T14:43:36.010Z,23.7
2022-12-24T14:49:18.430Z,23.6
2022-12-24T14:55:35.026Z,23
2022-12-24T15:01:47.477Z,22.8
2022-12-24T15:07:27.287Z,22.8
2022-12-24T15:13:09.778Z,23
2022-12-24T15:18:38.736Z,23.1
2022-12-24T15:23:51.493Z,23.1
2022-12-24T15:29:36.784Z,23.1
2022-12-24T15:35:15.506Z,23.1
2022-12-24T15:40:37.950Z,22.6
2022-12-24T15:46:02.832Z,22.4
2022-12-24T15:51:09.650Z,22.4
2022-12-24T15:56:32.253Z,22.6
2022-12-24T16:01:40.345Z,22.8
2022-12-24T16:07:04.955Z,22.9
2022-12-24T16:12:19.476Z,22.9
2022-12-24T16:17:57.383Z,22.9
2022-12-24T16:23:38.809Z,22.8
2022-12-24T16:29:21.117Z,22.3
2022-12-24T16:34:59.679Z,22.1
2022-12-24T16:40:43.827Z,22.3
2022-12-24T16:46:07.102Z,22.5
2022-12-24T16:51:49.431Z,22.6
2022-12-24T16:57:01.757Z,22.6
